createdAt,value
2022-09-07T00:01:49.767Z,99731.38
2022-09-07T00:03:56.982Z,99721.72
2022-09-07T00:06:07.753Z,99725.38
2022-09-07T00:08:12.100Z,99720.03
2022-09-07T00:10:16.231Z,99715.53
2022-09-07T00:12:20.002Z,99715.38
2022-09-07T00:14:23.483Z,99715.25
2022-09-07T00:16:29.736Z,99711.31
2022-09-07T00:18:33.355Z,99711.81
2022-09-07T00:20:37.334Z,99715.34
2022-09-07T00:22:42.840Z,99717.84
2022-09-07T00:24:46.493Z,99710.69
2022-09-07T00:26:50.225Z,99713.91
2022-09-07T00:28:57.562Z,99712.59
2022-09-07T00:31:01.264Z,99700.94
2022-09-07T00:33:04.958Z,99705.44
2022-09-07T00:35:09.073Z,99704.47
2022-09-07T00:37:12.916Z,99712.31
2022-09-07T00:39:17.898Z,99708.66
2022-09-07T00:41:23.169Z,99704.47
2022-09-07T00:43:32.700Z,99705.59
2022-09-07T00:45:36.826Z,99690.91
2022-09-07T00:47:48.878Z,99689.38
2022-09-07T00:49:57.189Z,99688.81
2022-09-07T00:52:05.292Z,99683.81
2022-09-07T00:54:12.297Z,99684.78
2022-09-07T00:56:17.666Z,99681.44
2022-09-07T00:58:23.265Z,99678.06
2022-09-07T01:00:28.521Z,99674.03
2022-09-07T01:02:32.619Z,99677.88
2022-09-07T01:04:36.444Z,99683.31
2022-09-07T01:06:42.817Z,99680.00
2022-09-07T01:08:49.934Z,99679.16
2022-09-07T01:10:53.571Z,99677.47
2022-09-07T01:12:58.665Z,99683.63
2022-09-07T01:15:02.563Z,99681.94
2022-09-07T01:17:14.507Z,99674.97
2022-09-07T01:19:53.593Z,99679.44
2022-09-07T01:22:30.846Z,99670.47
2022-09-07T01:24:43.010Z,99678.31
2022-09-07T01:27:24.570Z,99674.66
2022-09-07T01:29:32.774Z,99674.66
2022-09-07T01:31:43.679Z,99676.19
2022-09-07T01:34:00.330Z,99671.53
2022-09-07T01:36:16.364Z,99667.06
2022-09-07T01:38:31.623Z,99673.06
2022-09-07T01:40:45.016Z,99665.22
2022-09-07T01:42:52.390Z,99667.06
2022-09-07T01:45:01.327Z,99676.03
2022-09-07T01:47:10.720Z,99668.03
2022-09-07T01:49:21.913Z,99662.56
2022-09-07T01:51:31.945Z,99659.72
2022-09-07T01:53:40.710Z,99669.41
2022-09-07T01:55:48.057Z,99668.59
2022-09-07T01:57:56.559Z,99659.59
2022-09-07T02:00:07.502Z,99667.72
2022-09-07T02:02:19.367Z,99667.88
2022-09-07T02:04:26.889Z,99664.41
2022-09-07T02:06:38.878Z,99658.38
2022-09-07T02:08:47.568Z,99649.38
2022-09-07T02:10:55.568Z,99640.56
2022-09-07T02:13:06.930Z,99636.06
2022-09-07T02:15:17.126Z,99650.38
2022-09-07T02:17:24.157Z,99651.34
2022-09-07T02:19:32.938Z,99642.38
2022-09-07T02:21:40.688Z,99642.38
2022-09-07T02:23:50.349Z,99639.72
2022-09-07T02:26:00.418Z,99641.56
2022-09-07T02:28:09.832Z,99633.72
2022-09-07T02:30:15.139Z,99635.69
2022-09-07T02:32:18.377Z,99641.00
2022-09-07T02:34:21.876Z,99634.00
2022-09-07T02:36:29.744Z,99640.34
2022-09-07T02:38:33.347Z,99630.66
2022-09-07T02:40:37.323Z,99640.34
2022-09-07T02:42:40.951Z,99645.66
2022-09-07T02:44:45.747Z,99643.00
2022-09-07T02:47:05.997Z,99654.47
2022-09-07T02:49:17.821Z,99649.97
2022-09-07T02:51:33.075Z,99653.50
2022-09-07T02:53:57.785Z,99648.00
2022-09-07T02:56:12.924Z,99639.03
2022-09-07T02:58:30.884Z,99637.34
2022-09-07T03:00:40.944Z,99633.72
2022-09-07T03:02:53.282Z,99626.41
2022-09-07T03:05:03.855Z,99626.94
2022-09-07T03:07:12.328Z,99631.81
2022-09-07T03:09:21.078Z,99635.00
2022-09-07T03:11:24.638Z,99632.19
2022-09-07T03:13:30.084Z,99634.84
2022-09-07T03:15:33.372Z,99632.19
2022-09-07T03:17:36.815Z,99635.84
2022-09-07T03:19:41.566Z,99635.84
2022-09-07T03:21:45.090Z,99635.84
2022-09-07T03:23:51.741Z,99637.69
2022-09-07T03:25:55.343Z,99629.69
2022-09-07T03:27:58.654Z,99635.84
2022-09-07T03:30:02.487Z,99646.50
2022-09-07T03:32:05.872Z,99643.84
2022-09-07T03:34:09.588Z,99639.47
2022-09-07T03:36:14.700Z,99633.31
2022-09-07T03:38:18.450Z,99645.97
2022-09-07T03:40:22.050Z,99644.31
2022-09-07T03:42:25.950Z,99637.28
2022-09-07T03:44:30.262Z,99641.09
2022-09-07T03:46:34.736Z,99637.75
2022-09-07T03:48:40.026Z,99637.75
2022-09-07T03:50:43.720Z,99637.06
2022-09-07T03:52:48.921Z,99649.53
2022-09-07T03:54:52.618Z,99654.88
2022-09-07T03:56:56.120Z,99637.22
2022-09-07T03:58:59.812Z,99640.56
2022-09-07T04:01:08.307Z,99640.56
2022-09-07T04:03:12.978Z,99639.41
2022-09-07T04:05:18.893Z,99636.63
2022-09-07T04:07:23.328Z,99642.06
2022-09-07T04:09:29.012Z,99643.59
2022-09-07T04:11:34.004Z,99646.09
2022-09-07T04:13:38.158Z,99641.78
2022-09-07T04:15:44.496Z,99638.41
2022-09-07T04:17:48.725Z,99638.28
2022-09-07T04:19:53.356Z,99636.16
2022-09-07T04:21:57.830Z,99640.34
2022-09-07T04:24:01.858Z,99636.69
2022-09-07T04:26:07.501Z,99639.47
2022-09-07T04:28:12.312Z,99634.16
2022-09-07T04:30:16.124Z,99641.16
2022-09-07T04:32:20.382Z,99640.19
2022-09-07T04:34:26.793Z,99634.69
2022-09-07T04:36:30.512Z,99629.22
2022-09-07T04:38:34.199Z,99634.69
2022-09-07T04:40:38.708Z,99627.16
2022-09-07T04:42:46.566Z,99632.50
2022-09-07T04:44:51.200Z,99625.50
2022-09-07T04:46:55.289Z,99626.47
2022-09-07T04:49:02.957Z,99623.13
2022-09-07T04:51:07.199Z,99627.47
2022-09-07T04:53:11.556Z,99624.78
2022-09-07T04:55:15.168Z,99624.13
2022-09-07T04:57:21.809Z,99624.94
2022-09-07T04:59:26.867Z,99624.13
2022-09-07T05:01:30.925Z,99619.63
2022-09-07T05:03:37.488Z,99619.63
2022-09-07T05:05:41.766Z,99618.78
2022-09-07T05:07:45.280Z,99622.44
2022-09-07T05:09:49.104Z,99619.94
2022-09-07T05:11:52.543Z,99610.41
2022-09-07T05:13:57.774Z,99615.22
2022-09-07T05:16:11.600Z,99611.84
2022-09-07T05:18:16.036Z,99613.00
2022-09-07T05:20:22.333Z,99615.00
2022-09-07T05:22:26.973Z,99612.44
2022-09-07T05:24:35.341Z,99606.28
2022-09-07T05:26:40.586Z,99609.94
2022-09-07T05:28:45.451Z,99610.78
2022-09-07T05:33:15.359Z,99612.44
2022-09-07T05:35:20.749Z,99605.00
2022-09-07T05:37:24.345Z,99607.34
2022-09-07T05:39:29.037Z,99607.34
2022-09-07T05:41:33.283Z,99614.69
2022-09-07T05:46:08.948Z,99615.00
2022-09-07T05:48:16.673Z,99616.94
2022-09-07T05:50:22.645Z,99627.59
2022-09-07T05:52:26.713Z,99620.59
2022-09-07T05:54:30.519Z,99616.94
2022-09-07T05:56:36.334Z,99620.31
2022-09-07T05:58:41.831Z,99615.00
2022-09-07T06:00:45.739Z,99623.66
2022-09-07T06:02:50.708Z,99621.69
2022-09-07T06:04:55.883Z,99620.97
2022-09-07T06:07:20.694Z,99618.31
2022-09-07T06:09:28.415Z,99620.00
2022-09-07T06:11:35.674Z,99620.00
2022-09-07T06:13:40.222Z,99620.69
2022-09-07T06:15:43.757Z,99621.38
2022-09-07T06:17:48.624Z,99623.88
2022-09-07T06:19:52.408Z,99627.25
2022-09-07T06:21:58.121Z,99626.41
2022-09-07T06:24:01.884Z,99628.06
2022-09-07T06:26:06.196Z,99627.25
2022-09-07T06:28:09.934Z,99616.59
2022-09-07T06:30:14.432Z,99615.75
2022-09-07T06:34:44.885Z,99612.09
2022-09-07T06:36:48.994Z,99623.41
2022-09-07T06:38:55.489Z,99617.66
2022-09-07T06:43:27.473Z,99630.81
2022-09-07T06:45:32.523Z,99627.16
2022-09-07T06:47:36.036Z,99628.16
2022-09-07T06:49:39.820Z,99625.81
2022-09-07T06:51:44.438Z,99634.47
2022-09-07T06:53:50.337Z,99639.78
2022-09-07T06:55:56.521Z,99639.78
2022-09-07T06:58:01.040Z,99635.44
2022-09-07T07:00:06.042Z,99644.13
2022-09-07T07:02:13.789Z,99641.47
2022-09-07T07:04:18.414Z,99649.47
2022-09-07T07:06:23.272Z,99656.47
2022-09-07T07:08:28.624Z,99658.28
2022-09-07T07:10:32.539Z,99662.47
2022-09-07T07:14:44.767Z,99667.50
2022-09-07T07:16:51.731Z,99666.38
2022-09-07T07:18:59.402Z,99658.53
2022-09-07T07:21:05.442Z,99667.22
2022-09-07T07:23:10.989Z,99669.72
2022-09-07T07:25:18.103Z,99662.56
2022-09-07T07:27:22.741Z,99669.41
2022-09-07T07:29:29.007Z,99661.28
2022-09-07T07:31:36.877Z,99652.28
2022-09-07T07:33:42.101Z,99653.97
2022-09-07T07:35:47.383Z,99650.28
2022-09-07T07:40:20.436Z,99646.44
2022-09-07T07:42:28.321Z,99646.13
2022-09-07T07:44:34.913Z,99642.47
2022-09-07T07:46:39.077Z,99656.47
2022-09-07T07:48:44.584Z,99656.31
2022-09-07T07:51:02.649Z,99651.13
2022-09-07T07:55:48.056Z,99644.44
2022-09-07T07:57:51.766Z,99650.91
2022-09-07T07:59:57.918Z,99641.53
2022-09-07T08:02:05.266Z,99645.66
2022-09-07T08:04:11.081Z,99646.66
2022-09-07T08:06:16.560Z,99644.97
2022-09-07T08:08:21.477Z,99651.16
2022-09-07T08:10:27.240Z,99645.50
2022-09-07T08:12:31.807Z,99650.47
2022-09-07T08:14:36.827Z,99644.25
2022-09-07T08:16:45.215Z,99648.59
2022-09-07T08:18:49.200Z,99642.22
2022-09-07T08:20:53.327Z,99651.03
2022-09-07T08:22:57.246Z,99654.19
2022-09-07T08:25:01.555Z,99651.75
2022-09-07T08:27:07.213Z,99649.63
2022-09-07T08:29:13.087Z,99640.47
2022-09-07T08:31:21.790Z,99644.00
2022-09-07T08:33:29.003Z,99639.03
2022-09-07T08:35:32.625Z,99646.53
2022-09-07T08:37:37.298Z,99640.50
2022-09-07T08:39:41.930Z,99650.69
2022-09-07T08:42:13.749Z,99635.97
2022-09-07T08:44:24.899Z,99638.66
2022-09-07T08:46:34.854Z,99635.31
2022-09-07T08:48:43.244Z,99642.00
2022-09-07T08:50:55.370Z,99634.84
2022-09-07T08:53:05.380Z,99629.97
2022-09-07T08:55:16.063Z,99633.97
2022-09-07T08:57:28.524Z,99636.47
2022-09-07T08:59:41.293Z,99644.47
2022-09-07T09:02:27.144Z,99644.97
2022-09-07T09:04:20.183Z,99659.09
2022-09-07T09:06:33.414Z,99662.59
2022-09-07T09:08:54.795Z,99667.25
2022-09-07T09:11:08.183Z,99662.44
2022-09-07T09:13:19.687Z,99657.75
2022-09-07T09:15:31.188Z,99661.94
2022-09-07T09:17:40.649Z,99665.34
2022-09-07T09:19:59.427Z,99655.16
2022-09-07T09:22:11.256Z,99647.16
2022-09-07T09:24:19.387Z,99649.38
2022-09-07T09:26:26.450Z,99647.69
2022-09-07T09:28:32.419Z,99655.72
2022-09-07T09:30:36.140Z,99659.22
2022-09-07T09:32:41.839Z,99660.69
2022-09-07T09:35:04.700Z,99662.53
2022-09-07T09:37:13.727Z,99667.50
2022-09-07T09:39:27.992Z,99667.88
2022-09-07T09:41:38.512Z,99657.31
2022-09-07T09:43:47.000Z,99663.22
2022-09-07T09:48:22.222Z,99657.03
2022-09-07T09:52:56.818Z,99656.25
2022-09-07T10:00:27.996Z,99669.94
2022-09-07T10:04:59.459Z,99665.13
2022-09-07T10:07:19.705Z,99665.34
2022-09-07T10:09:29.092Z,99658.34
2022-09-07T10:14:22.295Z,99661.88
2022-09-07T10:16:40.450Z,99657.97
2022-09-07T10:18:56.882Z,99654.88
2022-09-07T10:21:28.196Z,99652.50
2022-09-07T10:23:33.143Z,99659.72
2022-09-07T10:25:39.795Z,99666.97
2022-09-07T10:27:47.147Z,99660.66
2022-09-07T10:29:51.051Z,99663.34
2022-09-07T10:32:12.974Z,99661.00
2022-09-07T10:34:28.996Z,99658.31
2022-09-07T10:36:38.177Z,99658.16
2022-09-07T10:38:49.461Z,99657.00
2022-09-07T10:41:00.019Z,99657.34
2022-09-07T10:43:21.544Z,99658.03
2022-09-07T10:45:36.797Z,99658.03
2022-09-07T10:47:50.104Z,99656.00
2022-09-07T10:52:30.479Z,99653.66
2022-09-07T10:54:44.300Z,99655.00
2022-09-07T10:56:59.525Z,99655.81
2022-09-07T10:59:17.533Z,99655.66
2022-09-07T11:01:28.683Z,99659.84
2022-09-07T11:03:56.034Z,99657.88
2022-09-07T11:06:12.492Z,99669.41
2022-09-07T11:09:15.928Z,99666.75
2022-09-07T11:11:10.247Z,99667.56
2022-09-07T11:13:20.186Z,99665.06
2022-09-07T11:15:29.012Z,99663.72
2022-09-07T11:17:44.158Z,99660.03
2022-09-07T11:19:53.017Z,99668.06
2022-09-07T11:22:02.616Z,99670.22
2022-09-07T11:24:10.355Z,99655.69
2022-09-07T11:26:22.666Z,99658.03
2022-09-07T11:28:30.951Z,99659.88
2022-09-07T11:30:39.825Z,99665.75
2022-09-07T11:32:52.853Z,99664.22
2022-09-07T11:35:01.780Z,99662.03
2022-09-07T11:37:12.615Z,99663.72
2022-09-07T11:39:23.777Z,99670.22
2022-09-07T11:41:32.732Z,99672.75
2022-09-07T11:43:44.348Z,99670.06
2022-09-07T11:45:53.956Z,99669.06
2022-09-07T11:48:01.463Z,99681.81
2022-09-07T11:50:05.857Z,99677.78
2022-09-07T11:52:16.464Z,99672.28
2022-09-07T11:54:41.050Z,99659.56
2022-09-07T11:56:53.095Z,99668.75
2022-09-07T11:59:22.572Z,99659.88
2022-09-07T12:01:38.301Z,99653.19
2022-09-07T12:04:17.748Z,99648.34
2022-09-07T12:06:47.865Z,99647.66
2022-09-07T12:09:07.097Z,99652.00
2022-09-07T12:11:39.022Z,99648.97
2022-09-07T12:14:08.665Z,99635.59
2022-09-07T12:16:20.773Z,99642.28
2022-09-07T12:18:43.424Z,99630.84
2022-09-07T12:20:49.435Z,99634.44
2022-09-07T12:23:05.279Z,99634.03
2022-09-07T12:25:11.501Z,99630.22
2022-09-07T12:27:41.277Z,99628.44
2022-09-07T12:29:47.299Z,99633.97
2022-09-07T12:32:52.779Z,99637.22
2022-09-07T12:34:58.471Z,99639.47
2022-09-07T12:37:05.354Z,99646.81
2022-09-07T12:39:27.199Z,99642.38
2022-09-07T12:42:31.988Z,99639.41
2022-09-07T12:44:29.260Z,99647.25
2022-09-07T12:46:56.376Z,99634.44
2022-09-07T12:49:08.621Z,99648.38
2022-09-07T12:51:59.607Z,99641.25
2022-09-07T12:53:57.591Z,99649.75
2022-09-07T12:56:26.935Z,99657.75
2022-09-07T12:58:42.728Z,99654.59
2022-09-07T13:00:58.342Z,99658.09
2022-09-07T13:06:05.886Z,99654.50
2022-09-07T13:08:40.467Z,99656.25
2022-09-07T13:10:44.946Z,99658.91
2022-09-07T13:12:56.789Z,99656.59
2022-09-07T13:15:02.162Z,99657.50
2022-09-07T13:17:44.825Z,99650.53
2022-09-07T13:20:24.318Z,99642.28
2022-09-07T13:22:58.666Z,99638.59
2022-09-07T13:25:04.367Z,99638.31
2022-09-07T13:27:30.710Z,99634.97
2022-09-07T13:29:40.861Z,99635.69
2022-09-07T13:31:53.777Z,99636.88
2022-09-07T13:33:58.226Z,99631.88
2022-09-07T13:36:06.443Z,99628.69
2022-09-07T13:38:15.752Z,99639.03
2022-09-07T13:40:23.489Z,99640.22
2022-09-07T13:42:30.678Z,99635.22
2022-09-07T13:44:35.739Z,99632.38
2022-09-07T13:46:58.453Z,99628.19
2022-09-07T13:49:07.892Z,99636.88
2022-09-07T13:51:19.006Z,99634.19
2022-09-07T13:53:35.505Z,99633.56
2022-09-07T13:55:47.043Z,99629.19
2022-09-07T13:58:04.213Z,99626.53
2022-09-07T14:00:15.357Z,99615.97
2022-09-07T14:02:25.006Z,99624.84
2022-09-07T14:04:35.607Z,99615.81
2022-09-07T14:06:40.591Z,99617.84
2022-09-07T14:08:49.590Z,99618.00
2022-09-07T14:10:53.113Z,99622.53
2022-09-07T14:13:07.948Z,99622.88
2022-09-07T14:15:21.306Z,99623.72
2022-09-07T14:17:25.113Z,99628.72
2022-09-07T14:19:38.123Z,99617.66
2022-09-07T14:21:43.588Z,99621.84
2022-09-07T14:23:51.621Z,99633.88
2022-09-07T14:26:17.603Z,99626.31
2022-09-07T14:28:33.902Z,99630.88
2022-09-07T14:30:38.376Z,99638.56
2022-09-07T14:32:42.818Z,99632.56
2022-09-07T14:34:47.240Z,99621.34
2022-09-07T14:36:54.374Z,99634.44
2022-09-07T14:39:07.001Z,99626.09
2022-09-07T14:41:14.888Z,99630.97
2022-09-07T14:43:30.015Z,99631.66
2022-09-07T14:45:37.546Z,99634.53
2022-09-07T14:47:41.894Z,99633.38
2022-09-07T14:49:58.802Z,99633.06
2022-09-07T14:52:04.847Z,99624.09
2022-09-07T14:54:10.740Z,99632.53
2022-09-07T14:56:22.935Z,99622.16
2022-09-07T14:58:26.683Z,99616.78
2022-09-07T15:00:33.121Z,99628.19
2022-09-07T15:02:38.338Z,99632.81
2022-09-07T15:04:42.251Z,99631.81
2022-09-07T15:07:04.331Z,99633.84
2022-09-07T15:09:31.004Z,99633.84
2022-09-07T15:11:39.196Z,99635.50
2022-09-07T15:13:46.609Z,99621.47
2022-09-07T15:15:58.726Z,99633.53
2022-09-07T15:18:08.793Z,99628.34
2022-09-07T15:20:41.587Z,99615.78
2022-09-07T15:22:46.142Z,99624.97
2022-09-07T15:24:52.241Z,99623.16
2022-09-07T15:27:05.217Z,99620.75
2022-09-07T15:29:10.955Z,99622.06
2022-09-07T15:33:40.726Z,99619.34
2022-09-07T15:35:44.736Z,99620.91
2022-09-07T15:38:06.076Z,99614.22
2022-09-07T15:40:20.594Z,99613.75
2022-09-07T15:44:51.085Z,99623.47
2022-09-07T15:49:21.042Z,99619.50
2022-09-07T15:56:16.277Z,99614.53
2022-09-07T15:58:19.900Z,99623.38
2022-09-07T16:00:23.426Z,99621.38
2022-09-07T16:04:51.907Z,99616.53
2022-09-07T16:06:55.743Z,99616.66
2022-09-07T16:08:59.261Z,99612.84
2022-09-07T16:11:18.691Z,99615.53
2022-09-07T16:13:24.657Z,99611.50
2022-09-07T16:15:29.227Z,99608.31
2022-09-07T16:17:36.558Z,99608.31
2022-09-07T16:19:41.489Z,99594.75
2022-09-07T16:21:57.469Z,99603.78
2022-09-07T16:24:03.106Z,99601.47
2022-09-07T16:26:09.773Z,99595.09
2022-09-07T16:28:15.304Z,99595.75
2022-09-07T16:30:19.054Z,99597.75
2022-09-07T16:34:46.080Z,99595.03
2022-09-07T16:36:50.026Z,99598.31
2022-09-07T16:38:59.978Z,99591.97
2022-09-07T16:41:04.327Z,99596.31
2022-09-07T16:43:11.868Z,99598.63
2022-09-07T16:47:41.366Z,99600.78
2022-09-07T16:49:45.309Z,99604.97
2022-09-07T16:51:49.930Z,99595.09
2022-09-07T16:53:58.868Z,99601.59
2022-09-07T16:56:05.754Z,99602.25
2022-09-07T17:00:34.709Z,99605.13
2022-09-07T17:02:38.427Z,99586.06
2022-09-07T17:04:42.352Z,99594.81
2022-09-07T17:06:46.331Z,99595.19
2022-09-07T17:08:49.974Z,99592.66
2022-09-07T17:11:02.359Z,99588.00
2022-09-07T17:13:09.300Z,99588.69
2022-09-07T17:15:15.032Z,99588.69
2022-09-07T17:17:20.391Z,99592.03
2022-09-07T17:19:31.620Z,99598.91
2022-09-07T17:21:38.683Z,99604.09
2022-09-07T17:23:49.439Z,99600.94
2022-09-07T17:26:06.918Z,99602.81
2022-09-07T17:28:11.133Z,99604.34
2022-09-07T17:30:15.880Z,99603.31
2022-09-07T17:32:25.389Z,99600.81
2022-09-07T17:34:30.603Z,99614.53
2022-09-07T17:36:34.687Z,99609.00
2022-09-07T17:41:10.435Z,99610.50
2022-09-07T17:45:37.793Z,99608.50
2022-09-07T17:47:43.176Z,99599.16
2022-09-07T17:49:46.878Z,99600.00
2022-09-07T17:51:50.468Z,99604.84
2022-09-07T17:53:58.771Z,99608.22
2022-09-07T17:56:02.776Z,99606.88
2022-09-07T17:58:06.456Z,99598.34
2022-09-07T18:00:12.318Z,99600.41
2022-09-07T18:02:16.245Z,99606.22
2022-09-07T18:04:21.442Z,99604.91
2022-09-07T18:06:25.966Z,99607.06
2022-09-07T18:08:29.465Z,99609.44
2022-09-07T18:12:58.162Z,99611.94
2022-09-07T18:15:01.784Z,99608.75
2022-09-07T18:17:06.563Z,99616.44
2022-09-07T18:19:11.224Z,99619.28
2022-09-07T18:21:18.882Z,99609.25
2022-09-07T18:23:22.963Z,99616.25
2022-09-07T18:25:26.862Z,99621.59
2022-09-07T18:27:32.461Z,99625.31
2022-09-07T18:29:36.023Z,99618.28
2022-09-07T18:31:40.016Z,99622.78
2022-09-07T18:33:43.822Z,99624.63
2022-09-07T18:35:48.073Z,99625.94
2022-09-07T18:37:54.427Z,99629.63
2022-09-07T18:39:58.825Z,99631.63
2022-09-07T18:42:02.410Z,99637.31
2022-09-07T18:45:27.337Z,99650.34
2022-09-07T18:46:30.582Z,99643.81
2022-09-07T18:48:35.000Z,99645.97
2022-09-07T18:50:39.132Z,99654.97
2022-09-07T18:53:07.120Z,99649.94
2022-09-07T18:55:10.254Z,99647.75
2022-09-07T18:57:15.505Z,99648.75
2022-09-07T18:59:19.716Z,99653.75
2022-09-07T19:01:24.490Z,99652.22
2022-09-07T19:03:29.059Z,99659.56
2022-09-07T19:07:56.451Z,99667.06
2022-09-07T19:10:00.404Z,99653.22
2022-09-07T19:12:08.105Z,99661.22
2022-09-07T19:14:12.361Z,99661.22
2022-09-07T19:16:18.759Z,99664.88
2022-09-07T19:18:22.692Z,99661.22
2022-09-07T19:20:29.030Z,99656.72
2022-09-07T19:22:32.723Z,99660.91
2022-09-07T19:24:37.943Z,99656.22
2022-09-07T19:26:45.012Z,99667.59
2022-09-07T19:28:55.575Z,99665.59
2022-09-07T19:31:05.153Z,99661.41
2022-09-07T19:33:12.289Z,99667.06
2022-09-07T19:35:18.402Z,99674.59
2022-09-07T19:37:26.028Z,99679.41
2022-09-07T19:39:31.536Z,99677.88
2022-09-07T19:41:42.197Z,99671.56
2022-09-07T19:43:48.402Z,99668.88
2022-09-07T19:45:55.996Z,99672.22
2022-09-07T19:48:00.280Z,99671.56
2022-09-07T19:50:06.670Z,99667.91
2022-09-07T19:52:13.427Z,99670.56
2022-09-07T19:54:17.431Z,99666.22
2022-09-07T19:56:22.683Z,99660.19
2022-09-07T19:58:28.138Z,99658.50
2022-09-07T20:00:35.380Z,99657.16
2022-09-07T20:02:44.217Z,99659.16
2022-09-07T20:04:53.566Z,99662.97
2022-09-07T20:06:57.970Z,99663.16
2022-09-07T20:09:04.810Z,99665.13
2022-09-07T20:11:13.471Z,99668.81
2022-09-07T20:13:18.349Z,99667.13
2022-09-07T20:15:22.307Z,99665.44
2022-09-07T20:17:31.838Z,99660.13
2022-09-07T20:19:41.844Z,99657.44
2022-09-07T20:21:46.866Z,99661.78
2022-09-07T20:23:53.054Z,99662.63
2022-09-07T20:26:01.699Z,99660.97
2022-09-07T20:28:06.749Z,99661.09
2022-09-07T20:30:15.350Z,99663.09
2022-09-07T20:32:24.736Z,99656.09
2022-09-07T20:34:32.244Z,99650.91
2022-09-07T20:36:40.671Z,99645.03
2022-09-07T20:38:48.091Z,99645.22
2022-09-07T20:40:58.325Z,99648.91
2022-09-07T20:43:03.247Z,99653.53
2022-09-07T20:45:08.734Z,99649.03
2022-09-07T20:47:14.093Z,99648.38
2022-09-07T20:49:17.856Z,99648.53
2022-09-07T20:51:23.070Z,99654.03
2022-09-07T20:53:29.871Z,99656.00
2022-09-07T20:55:34.405Z,99660.81
2022-09-07T20:57:38.652Z,99656.66
2022-09-07T20:59:44.914Z,99657.13
2022-09-07T21:01:49.770Z,99654.94
2022-09-07T21:03:56.524Z,99656.41
2022-09-07T21:06:04.671Z,99656.03
2022-09-07T21:08:08.808Z,99658.16
2022-09-07T21:10:16.310Z,99660.47
2022-09-07T21:12:21.319Z,99655.59
2022-09-07T21:14:25.912Z,99655.75
2022-09-07T21:16:31.569Z,99657.44
2022-09-07T21:18:36.970Z,99652.09
2022-09-07T21:20:41.848Z,99654.94
2022-09-07T21:22:46.186Z,99650.59
2022-09-07T21:24:51.231Z,99655.91
2022-09-07T21:26:56.625Z,99651.41
2022-09-07T21:29:03.137Z,99653.09
2022-09-07T21:31:09.210Z,99655.44
2022-09-07T21:33:13.253Z,99654.44
2022-09-07T21:35:18.180Z,99652.63
2022-09-07T21:37:23.690Z,99660.47
2022-09-07T21:39:28.281Z,99652.44
2022-09-07T21:41:33.989Z,99653.16
2022-09-07T21:43:39.553Z,99656.47
2022-09-07T21:45:43.699Z,99646.50
2022-09-07T21:47:47.450Z,99654.50
2022-09-07T21:49:52.880Z,99654.34
2022-09-07T21:51:56.440Z,99657.56
2022-09-07T21:54:01.429Z,99651.88
2022-09-07T21:56:07.378Z,99654.25
2022-09-07T21:58:10.931Z,99654.94
2022-09-07T22:00:16.521Z,99659.94
2022-09-07T22:02:20.062Z,99651.78
2022-09-07T22:04:23.520Z,99655.97
2022-09-07T22:06:28.493Z,99652.31
2022-09-07T22:08:32.022Z,99649.63
2022-09-07T22:10:35.472Z,99652.31
2022-09-07T22:12:39.013Z,99654.28
2022-09-07T22:14:42.866Z,99657.81
2022-09-07T22:16:47.909Z,99658.78
2022-09-07T22:18:51.817Z,99647.97
2022-09-07T22:21:03.318Z,99648.78
2022-09-07T22:23:07.529Z,99647.97
2022-09-07T22:25:11.210Z,99647.63
2022-09-07T22:27:14.780Z,99647.63
2022-09-07T22:29:18.599Z,99634.28
2022-09-07T22:31:24.842Z,99644.97
2022-09-07T22:33:33.403Z,99645.97
2022-09-07T22:35:37.144Z,99641.63
2022-09-07T22:37:40.520Z,99646.13
2022-09-07T22:39:44.713Z,99639.13
2022-09-07T22:41:48.947Z,99638.28
2022-09-07T22:43:52.831Z,99640.28
2022-09-07T22:45:56.678Z,99643.09
2022-09-07T22:48:00.233Z,99633.59
2022-09-07T22:50:05.802Z,99638.75
2022-09-07T22:52:09.413Z,99642.25
2022-09-07T22:54:16.466Z,99641.97
2022-09-07T22:56:21.910Z,99643.59
2022-09-07T22:58:29.176Z,99632.28
2022-09-07T23:00:33.734Z,99632.22
2022-09-07T23:02:38.530Z,99634.53
2022-09-07T23:04:44.256Z,99634.84
2022-09-07T23:06:49.386Z,99635.13
2022-09-07T23:08:54.488Z,99628.97
2022-09-07T23:11:05.324Z,99640.63
2022-09-07T23:13:14.933Z,99637.16
2022-09-07T23:15:20.757Z,99641.66
2022-09-07T23:17:24.912Z,99634.63
2022-09-07T23:19:28.667Z,99638.13
2022-09-07T23:21:32.542Z,99636.31
2022-09-07T23:23:38.737Z,99634.31
2022-09-07T23:25:44.713Z,99629.81
2022-09-07T23:27:48.218Z,99631.47
2022-09-07T23:29:52.164Z,99626.84
2022-09-07T23:31:55.830Z,99627.50
2022-09-07T23:34:00.641Z,99627.50
2022-09-07T23:36:07.551Z,99627.50
2022-09-07T23:38:11.519Z,99625.69
2022-09-07T23:40:16.857Z,99618.50
2022-09-07T23:42:21.125Z,99615.69
2022-09-07T23:44:24.732Z,99618.19
2022-09-07T23:46:28.399Z,99619.88
2022-09-07T23:48:32.032Z,99625.91
2022-09-07T23:50:35.743Z,99616.72
2022-09-07T23:52:39.151Z,99620.06
2022-09-07T23:54:43.063Z,99616.41
2022-09-07T23:56:48.286Z,99611.91
2022-09-07T23:58:52.262Z,99613.06
